sensor_id;sensor_type;location;lat;lon;timestamp;temperature;humidity
84739;DHT22;74969;44.836;-0.586;2024-02-26T00:00:33;10.70;81.60
84739;DHT22;74969;44.836;-0.586;2024-02-26T00:03:00;10.60;81.90
84739;DHT22;74969;44.836;-0.586;2024-02-26T00:05:26;10.70;81.70
84739;DHT22;74969;44.836;-0.586;2024-02-26T00:07:51;10.70;82.10
84739;DHT22;74969;44.836;-0.586;2024-02-26T00:10:17;10.70;82.30
84739;DHT22;74969;44.836;-0.586;2024-02-26T00:12:43;10.70;82.20
84739;DHT22;74969;44.836;-0.586;2024-02-26T00:15:10;10.70;82.10
84739;DHT22;74969;44.836;-0.586;2024-02-26T00:17:36;10.70;82.20
84739;DHT22;74969;44.836;-0.586;2024-02-26T00:20:03;10.60;82.10
84739;DHT22;74969;44.836;-0.586;2024-02-26T00:22:30;10.60;82.30
84739;DHT22;74969;44.836;-0.586;2024-02-26T00:24:56;10.60;82.40
84739;DHT22;74969;44.836;-0.586;2024-02-26T00:27:22;10.70;82.30
84739;DHT22;74969;44.836;-0.586;2024-02-26T00:29:47;10.60;82.30
84739;DHT22;74969;44.836;-0.586;2024-02-26T00:32:13;10.70;82.30
84739;DHT22;74969;44.836;-0.586;2024-02-26T00:34:39;10.70;82.20
84739;DHT22;74969;44.836;-0.586;2024-02-26T00:37:05;10.70;82.30
84739;DHT22;74969;44.836;-0.586;2024-02-26T00:39:30;10.70;82.20
84739;DHT22;74969;44.836;-0.586;2024-02-26T00:41:56;10.70;82.20
84739;DHT22;74969;44.836;-0.586;2024-02-26T00:44:22;10.70;82.30
84739;DHT22;74969;44.836;-0.586;2024-02-26T00:46:48;10.70;82.30
84739;DHT22;74969;44.836;-0.586;2024-02-26T00:49:13;10.70;82.40
84739;DHT22;74969;44.836;-0.586;2024-02-26T00:51:39;10.70;82.40
84739;DHT22;74969;44.836;-0.586;2024-02-26T00:54:04;10.70;82.60
84739;DHT22;74969;44.836;-0.586;2024-02-26T00:56:30;10.70;82.60
84739;DHT22;74969;44.836;-0.586;2024-02-26T00:58:56;10.70;82.30
84739;DHT22;74969;44.836;-0.586;2024-02-26T01:01:21;10.70;82.30
84739;DHT22;74969;44.836;-0.586;2024-02-26T01:03:47;10.70;82.20
84739;DHT22;74969;44.836;-0.586;2024-02-26T01:06:13;10.70;82.30
84739;DHT22;74969;44.836;-0.586;2024-02-26T01:08:38;10.70;82.60
84739;DHT22;74969;44.836;-0.586;2024-02-26T01:11:04;10.70;82.60
84739;DHT22;74969;44.836;-0.586;2024-02-26T01:13:30;10.80;82.60
84739;DHT22;74969;44.836;-0.586;2024-02-26T01:15:56;10.80;82.70
84739;DHT22;74969;44.836;-0.586;2024-02-26T01:18:21;10.70;82.50
84739;DHT22;74969;44.836;-0.586;2024-02-26T01:20:47;10.70;82.60
84739;DHT22;74969;44.836;-0.586;2024-02-26T01:23:13;10.60;82.80
84739;DHT22;74969;44.836;-0.586;2024-02-26T01:25:39;10.70;82.90
84739;DHT22;74969;44.836;-0.586;2024-02-26T01:28:05;10.70;82.10
84739;DHT22;74969;44.836;-0.586;2024-02-26T01:30:31;10.70;81.80
84739;DHT22;74969;44.836;-0.586;2024-02-26T01:32:57;10.70;81.90
84739;DHT22;74969;44.836;-0.586;2024-02-26T01:35:22;10.70;81.60
84739;DHT22;74969;44.836;-0.586;2024-02-26T01:37:48;10.70;81.50
84739;DHT22;74969;44.836;-0.586;2024-02-26T01:40:14;10.70;81.30
84739;DHT22;74969;44.836;-0.586;2024-02-26T01:42:45;10.70;81.30
84739;DHT22;74969;44.836;-0.586;2024-02-26T01:45:15;10.70;81.70
84739;DHT22;74969;44.836;-0.586;2024-02-26T01:47:41;10.70;81.40
84739;DHT22;74969;44.836;-0.586;2024-02-26T01:50:08;10.60;81.10
84739;DHT22;74969;44.836;-0.586;2024-02-26T01:52:34;10.60;81.00
84739;DHT22;74969;44.836;-0.586;2024-02-26T01:55:00;10.60;81.00
84739;DHT22;74969;44.836;-0.586;2024-02-26T01:57:27;10.50;81.50
84739;DHT22;74969;44.836;-0.586;2024-02-26T01:59:54;10.60;81.50
84739;DHT22;74969;44.836;-0.586;2024-02-26T02:02:20;10.60;81.70
84739;DHT22;74969;44.836;-0.586;2024-02-26T02:04:46;10.60;81.10
84739;DHT22;74969;44.836;-0.586;2024-02-26T02:07:12;10.50;80.80
84739;DHT22;74969;44.836;-0.586;2024-02-26T02:09:38;10.50;80.90
84739;DHT22;74969;44.836;-0.586;2024-02-26T02:12:04;10.60;81.10
84739;DHT22;74969;44.836;-0.586;2024-02-26T02:14:31;10.60;81.30
84739;DHT22;74969;44.836;-0.586;2024-02-26T02:16:57;10.60;81.80
84739;DHT22;74969;44.836;-0.586;2024-02-26T02:19:23;10.60;81.90
84739;DHT22;74969;44.836;-0.586;2024-02-26T02:21:48;10.60;81.60
84739;DHT22;74969;44.836;-0.586;2024-02-26T02:24:14;10.60;81.80
84739;DHT22;74969;44.836;-0.586;2024-02-26T02:26:40;10.60;81.60
84739;DHT22;74969;44.836;-0.586;2024-02-26T02:29:06;10.60;81.10
84739;DHT22;74969;44.836;-0.586;2024-02-26T02:31:32;10.60;80.60
84739;DHT22;74969;44.836;-0.586;2024-02-26T02:33:58;10.60;80.80
84739;DHT22;74969;44.836;-0.586;2024-02-26T02:36:24;10.60;80.60
84739;DHT22;74969;44.836;-0.586;2024-02-26T02:38:50;10.60;80.60
84739;DHT22;74969;44.836;-0.586;2024-02-26T02:41:16;10.60;80.80
84739;DHT22;74969;44.836;-0.586;2024-02-26T02:43:42;10.60;80.40
84739;DHT22;74969;44.836;-0.586;2024-02-26T02:46:08;10.50;80.10
84739;DHT22;74969;44.836;-0.586;2024-02-26T02:48:33;10.50;80.30
84739;DHT22;74969;44.836;-0.586;2024-02-26T02:50:59;10.50;80.80
84739;DHT22;74969;44.836;-0.586;2024-02-26T02:53:24;10.50;80.80
84739;DHT22;74969;44.836;-0.586;2024-02-26T02:55:50;10.50;80.40
84739;DHT22;74969;44.836;-0.586;2024-02-26T02:58:16;10.60;80.00
84739;DHT22;74969;44.836;-0.586;2024-02-26T03:00:41;10.50;79.50
84739;DHT22;74969;44.836;-0.586;2024-02-26T03:03:07;10.50;78.80
84739;DHT22;74969;44.836;-0.586;2024-02-26T03:05:33;10.40;77.50
84739;DHT22;74969;44.836;-0.586;2024-02-26T03:07:58;10.30;77.40
84739;DHT22;74969;44.836;-0.586;2024-02-26T03:10:25;10.30;78.10
84739;DHT22;74969;44.836;-0.586;2024-02-26T03:12:50;10.30;78.00
84739;DHT22;74969;44.836;-0.586;2024-02-26T03:15:16;10.20;77.40
84739;DHT22;74969;44.836;-0.586;2024-02-26T03:17:42;10.20;77.90
84739;DHT22;74969;44.836;-0.586;2024-02-26T03:20:08;10.20;78.20
84739;DHT22;74969;44.836;-0.586;2024-02-26T03:22:35;10.20;78.30
84739;DHT22;74969;44.836;-0.586;2024-02-26T03:25:01;10.20;78.90
84739;DHT22;74969;44.836;-0.586;2024-02-26T03:27:27;10.20;79.00
84739;DHT22;74969;44.836;-0.586;2024-02-26T03:29:52;10.30;78.80
84739;DHT22;74969;44.836;-0.586;2024-02-26T03:32:18;10.30;78.70
84739;DHT22;74969;44.836;-0.586;2024-02-26T03:34:44;10.30;78.50
84739;DHT22;74969;44.836;-0.586;2024-02-26T03:37:09;10.30;78.90
84739;DHT22;74969;44.836;-0.586;2024-02-26T03:39:36;10.30;79.30
84739;DHT22;74969;44.836;-0.586;2024-02-26T03:42:02;10.30;79.30
84739;DHT22;74969;44.836;-0.586;2024-02-26T03:44:28;10.30;79.20
84739;DHT22;74969;44.836;-0.586;2024-02-26T03:46:54;10.20;79.50
84739;DHT22;74969;44.836;-0.586;2024-02-26T03:49:19;10.20;79.90
84739;DHT22;74969;44.836;-0.586;2024-02-26T03:51:45;10.20;80.20
84739;DHT22;74969;44.836;-0.586;2024-02-26T03:54:11;10.20;80.70
84739;DHT22;74969;44.836;-0.586;2024-02-26T03:56:36;10.20;81.00
84739;DHT22;74969;44.836;-0.586;2024-02-26T03:59:02;10.20;81.30
84739;DHT22;74969;44.836;-0.586;2024-02-26T04:01:28;10.10;81.00
84739;DHT22;74969;44.836;-0.586;2024-02-26T04:03:54;10.20;81.10
84739;DHT22;74969;44.836;-0.586;2024-02-26T04:06:19;10.10;81.10
84739;DHT22;74969;44.836;-0.586;2024-02-26T04:08:47;10.20;80.90
84739;DHT22;74969;44.836;-0.586;2024-02-26T04:11:12;10.20;81.00
84739;DHT22;74969;44.836;-0.586;2024-02-26T04:13:38;10.20;80.90
84739;DHT22;74969;44.836;-0.586;2024-02-26T04:16:05;10.20;80.80
84739;DHT22;74969;44.836;-0.586;2024-02-26T04:18:31;10.20;80.90
84739;DHT22;74969;44.836;-0.586;2024-02-26T04:20:57;10.20;80.40
84739;DHT22;74969;44.836;-0.586;2024-02-26T04:23:23;10.20;80.50
84739;DHT22;74969;44.836;-0.586;2024-02-26T04:25:49;10.20;80.30
84739;DHT22;74969;44.836;-0.586;2024-02-26T04:28:14;10.20;80.50
84739;DHT22;74969;44.836;-0.586;2024-02-26T04:30:41;10.30;80.10
84739;DHT22;74969;44.836;-0.586;2024-02-26T04:33:06;10.30;79.70
84739;DHT22;74969;44.836;-0.586;2024-02-26T04:35:32;10.30;79.80
84739;DHT22;74969;44.836;-0.586;2024-02-26T04:37:58;10.30;79.70
84739;DHT22;74969;44.836;-0.586;2024-02-26T04:40:23;10.30;79.70
84739;DHT22;74969;44.836;-0.586;2024-02-26T04:42:49;10.30;79.50
84739;DHT22;74969;44.836;-0.586;2024-02-26T04:45:15;10.30;79.30
84739;DHT22;74969;44.836;-0.586;2024-02-26T04:47:41;10.30;79.00
84739;DHT22;74969;44.836;-0.586;2024-02-26T04:50:07;10.20;78.80
84739;DHT22;74969;44.836;-0.586;2024-02-26T04:52:32;10.20;78.80
84739;DHT22;74969;44.836;-0.586;2024-02-26T04:54:58;10.20;78.40
84739;DHT22;74969;44.836;-0.586;2024-02-26T04:57:26;10.20;78.60
84739;DHT22;74969;44.836;-0.586;2024-02-26T04:59:52;10.20;78.60
84739;DHT22;74969;44.836;-0.586;2024-02-26T05:02:17;10.20;78.70
84739;DHT22;74969;44.836;-0.586;2024-02-26T05:04:43;10.20;78.30
84739;DHT22;74969;44.836;-0.586;2024-02-26T05:07:09;10.20;78.30
84739;DHT22;74969;44.836;-0.586;2024-02-26T05:09:35;10.20;78.30
84739;DHT22;74969;44.836;-0.586;2024-02-26T05:12:00;10.20;78.40
84739;DHT22;74969;44.836;-0.586;2024-02-26T05:14:27;10.30;78.40
84739;DHT22;74969;44.836;-0.586;2024-02-26T05:16:52;10.30;78.00
84739;DHT22;74969;44.836;-0.586;2024-02-26T05:19:18;10.30;78.00
84739;DHT22;74969;44.836;-0.586;2024-02-26T05:21:44;10.30;78.20
84739;DHT22;74969;44.836;-0.586;2024-02-26T05:24:10;10.30;78.30
84739;DHT22;74969;44.836;-0.586;2024-02-26T05:26:35;10.30;78.90
84739;DHT22;74969;44.836;-0.586;2024-02-26T05:29:01;10.30;79.30
84739;DHT22;74969;44.836;-0.586;2024-02-26T05:31:27;10.30;80.10
84739;DHT22;74969;44.836;-0.586;2024-02-26T05:33:54;10.30;80.10
84739;DHT22;74969;44.836;-0.586;2024-02-26T05:36:20;10.30;80.20
84739;DHT22;74969;44.836;-0.586;2024-02-26T05:38:48;10.30;80.40
84739;DHT22;74969;44.836;-0.586;2024-02-26T05:41:15;10.20;80.80
84739;DHT22;74969;44.836;-0.586;2024-02-26T05:43:41;10.30;81.00
84739;DHT22;74969;44.836;-0.586;2024-02-26T05:46:06;10.30;80.80
84739;DHT22;74969;44.836;-0.586;2024-02-26T05:48:32;10.20;81.20
84739;DHT22;74969;44.836;-0.586;2024-02-26T05:50:58;10.20;81.30
84739;DHT22;74969;44.836;-0.586;2024-02-26T05:53:23;10.20;81.70
84739;DHT22;74969;44.836;-0.586;2024-02-26T05:55:49;10.10;82.10
84739;DHT22;74969;44.836;-0.586;2024-02-26T05:58:14;10.10;82.40
84739;DHT22;74969;44.836;-0.586;2024-02-26T06:00:40;10.10;82.40
84739;DHT22;74969;44.836;-0.586;2024-02-26T06:03:06;10.10;82.10
84739;DHT22;74969;44.836;-0.586;2024-02-26T06:05:32;10.10;82.10
84739;DHT22;74969;44.836;-0.586;2024-02-26T06:07:57;10.10;81.90
84739;DHT22;74969;44.836;-0.586;2024-02-26T06:10:23;10.10;81.80
84739;DHT22;74969;44.836;-0.586;2024-02-26T06:12:49;10.10;81.50
84739;DHT22;74969;44.836;-0.586;2024-02-26T06:15:14;10.10;81.50
84739;DHT22;74969;44.836;-0.586;2024-02-26T06:17:40;10.10;81.50
84739;DHT22;74969;44.836;-0.586;2024-02-26T06:20:06;10.10;81.60
84739;DHT22;74969;44.836;-0.586;2024-02-26T06:22:37;10.10;81.60
84739;DHT22;74969;44.836;-0.586;2024-02-26T06:25:02;10.10;81.70
84739;DHT22;74969;44.836;-0.586;2024-02-26T06:27:28;10.20;81.60
84739;DHT22;74969;44.836;-0.586;2024-02-26T06:29:54;10.10;81.60
84739;DHT22;74969;44.836;-0.586;2024-02-26T06:32:19;10.10;81.90
84739;DHT22;74969;44.836;-0.586;2024-02-26T06:34:45;10.10;81.90
84739;DHT22;74969;44.836;-0.586;2024-02-26T06:37:11;10.20;81.80
84739;DHT22;74969;44.836;-0.586;2024-02-26T06:39:36;10.10;81.90
84739;DHT22;74969;44.836;-0.586;2024-02-26T06:42:04;10.10;81.60
84739;DHT22;74969;44.836;-0.586;2024-02-26T06:44:29;10.10;81.50
84739;DHT22;74969;44.836;-0.586;2024-02-26T06:47:00;10.10;82.10
84739;DHT22;74969;44.836;-0.586;2024-02-26T06:49:26;10.10;82.30
84739;DHT22;74969;44.836;-0.586;2024-02-26T06:51:52;10.10;82.20
84739;DHT22;74969;44.836;-0.586;2024-02-26T06:54:18;10.10;82.20
84739;DHT22;74969;44.836;-0.586;2024-02-26T06:56:44;10.10;82.30
84739;DHT22;74969;44.836;-0.586;2024-02-26T06:59:09;10.20;82.30
84739;DHT22;74969;44.836;-0.586;2024-02-26T07:01:35;10.20;82.00
84739;DHT22;74969;44.836;-0.586;2024-02-26T07:04:01;10.10;82.40
84739;DHT22;74969;44.836;-0.586;2024-02-26T07:06:29;10.20;82.20
84739;DHT22;74969;44.836;-0.586;2024-02-26T07:08:55;10.20;82.10
84739;DHT22;74969;44.836;-0.586;2024-02-26T07:11:21;10.20;82.00
84739;DHT22;74969;44.836;-0.586;2024-02-26T07:13:47;10.20;81.60
84739;DHT22;74969;44.836;-0.586;2024-02-26T07:16:12;10.20;81.90
84739;DHT22;74969;44.836;-0.586;2024-02-26T07:18:41;10.20;81.30
84739;DHT22;74969;44.836;-0.586;2024-02-26T07:21:09;10.20;81.50
84739;DHT22;74969;44.836;-0.586;2024-02-26T07:23:34;10.20;81.30
84739;DHT22;74969;44.836;-0.586;2024-02-26T07:26:00;10.20;81.10
84739;DHT22;74969;44.836;-0.586;2024-02-26T07:28:26;10.20;80.90
84739;DHT22;74969;44.836;-0.586;2024-02-26T07:30:51;10.10;81.40
84739;DHT22;74969;44.836;-0.586;2024-02-26T07:33:17;10.10;81.50
84739;DHT22;74969;44.836;-0.586;2024-02-26T07:35:43;10.20;81.50
84739;DHT22;74969;44.836;-0.586;2024-02-26T07:38:08;10.10;81.90
84739;DHT22;74969;44.836;-0.586;2024-02-26T07:40:34;10.10;82.10
84739;DHT22;74969;44.836;-0.586;2024-02-26T07:43:00;10.10;82.10
84739;DHT22;74969;44.836;-0.586;2024-02-26T07:45:25;10.10;82.50
84739;DHT22;74969;44.836;-0.586;2024-02-26T07:47:51;10.00;82.60
84739;DHT22;74969;44.836;-0.586;2024-02-26T07:50:18;10.00;83.00
84739;DHT22;74969;44.836;-0.586;2024-02-26T07:52:45;10.00;83.20
84739;DHT22;74969;44.836;-0.586;2024-02-26T07:55:11;10.00;83.20
84739;DHT22;74969;44.836;-0.586;2024-02-26T07:57:36;10.10;83.30
84739;DHT22;74969;44.836;-0.586;2024-02-26T08:00:03;10.00;82.80
84739;DHT22;74969;44.836;-0.586;2024-02-26T08:02:29;10.00;82.00
84739;DHT22;74969;44.836;-0.586;2024-02-26T08:04:54;9.90;82.00
84739;DHT22;74969;44.836;-0.586;2024-02-26T08:07:20;9.80;82.20
84739;DHT22;74969;44.836;-0.586;2024-02-26T08:09:47;9.70;81.80
84739;DHT22;74969;44.836;-0.586;2024-02-26T08:12:13;9.70;82.20
84739;DHT22;74969;44.836;-0.586;2024-02-26T08:14:39;9.70;82.40
84739;DHT22;74969;44.836;-0.586;2024-02-26T08:17:34;10.50;80.70
84739;DHT22;74969;44.836;-0.586;2024-02-26T08:22:54;10.50;80.40
84739;DHT22;74969;44.836;-0.586;2024-02-26T08:25:19;9.90;81.60
84739;DHT22;74969;44.836;-0.586;2024-02-26T08:27:45;9.80;82.50
84739;DHT22;74969;44.836;-0.586;2024-02-26T08:30:13;9.80;82.70
84739;DHT22;74969;44.836;-0.586;2024-02-26T08:32:45;9.80;82.60
84739;DHT22;74969;44.836;-0.586;2024-02-26T08:35:11;9.70;82.90
84739;DHT22;74969;44.836;-0.586;2024-02-26T08:37:37;9.70;82.90
84739;DHT22;74969;44.836;-0.586;2024-02-26T08:40:03;9.70;82.70
84739;DHT22;74969;44.836;-0.586;2024-02-26T08:42:29;9.70;82.70
84739;DHT22;74969;44.836;-0.586;2024-02-26T08:44:55;9.70;82.60
84739;DHT22;74969;44.836;-0.586;2024-02-26T08:47:21;9.70;82.50
84739;DHT22;74969;44.836;-0.586;2024-02-26T08:49:48;9.70;82.20
84739;DHT22;74969;44.836;-0.586;2024-02-26T08:52:13;9.70;82.20
84739;DHT22;74969;44.836;-0.586;2024-02-26T08:54:39;9.70;82.10
84739;DHT22;74969;44.836;-0.586;2024-02-26T08:57:06;9.60;82.30
84739;DHT22;74969;44.836;-0.586;2024-02-26T08:59:31;9.70;82.50
84739;DHT22;74969;44.836;-0.586;2024-02-26T09:01:57;9.70;82.70
84739;DHT22;74969;44.836;-0.586;2024-02-26T09:04:23;9.70;82.90
84739;DHT22;74969;44.836;-0.586;2024-02-26T09:06:48;9.70;83.00
84739;DHT22;74969;44.836;-0.586;2024-02-26T09:09:14;9.70;83.10
84739;DHT22;74969;44.836;-0.586;2024-02-26T09:11:40;9.80;82.80
84739;DHT22;74969;44.836;-0.586;2024-02-26T09:14:06;9.90;83.10
84739;DHT22;74969;44.836;-0.586;2024-02-26T09:16:31;9.90;82.60
84739;DHT22;74969;44.836;-0.586;2024-02-26T09:18:57;9.90;82.50
84739;DHT22;74969;44.836;-0.586;2024-02-26T09:21:23;9.90;82.60
84739;DHT22;74969;44.836;-0.586;2024-02-26T09:23:50;9.90;82.60
84739;DHT22;74969;44.836;-0.586;2024-02-26T09:27:07;10.70;80.80
84739;DHT22;74969;44.836;-0.586;2024-02-26T09:29:35;10.20;82.00
84739;DHT22;74969;44.836;-0.586;2024-02-26T09:32:01;10.10;82.60
84739;DHT22;74969;44.836;-0.586;2024-02-26T09:34:27;10.20;82.70
84739;DHT22;74969;44.836;-0.586;2024-02-26T09:36:52;10.20;82.40
84739;DHT22;74969;44.836;-0.586;2024-02-26T09:39:18;10.20;82.40
84739;DHT22;74969;44.836;-0.586;2024-02-26T09:41:47;10.20;82.70
84739;DHT22;74969;44.836;-0.586;2024-02-26T09:44:18;10.20;82.60
84739;DHT22;74969;44.836;-0.586;2024-02-26T09:46:45;10.10;82.80
84739;DHT22;74969;44.836;-0.586;2024-02-26T09:49:12;10.10;83.20
84739;DHT22;74969;44.836;-0.586;2024-02-26T09:51:38;10.10;83.50
84739;DHT22;74969;44.836;-0.586;2024-02-26T09:54:09;10.10;83.40
84739;DHT22;74969;44.836;-0.586;2024-02-26T09:56:36;10.10;83.80
84739;DHT22;74969;44.836;-0.586;2024-02-26T09:59:06;10.00;84.10
84739;DHT22;74969;44.836;-0.586;2024-02-26T10:01:37;10.00;84.10
84739;DHT22;74969;44.836;-0.586;2024-02-26T10:04:04;10.00;84.40
84739;DHT22;74969;44.836;-0.586;2024-02-26T10:06:30;10.10;84.40
84739;DHT22;74969;44.836;-0.586;2024-02-26T10:08:56;10.10;84.50
84739;DHT22;74969;44.836;-0.586;2024-02-26T10:11:24;10.20;84.50
84739;DHT22;74969;44.836;-0.586;2024-02-26T10:13:49;10.30;84.50
84739;DHT22;74969;44.836;-0.586;2024-02-26T10:17:33;11.00;81.40
84739;DHT22;74969;44.836;-0.586;2024-02-26T10:20:15;10.50;82.30
84739;DHT22;74969;44.836;-0.586;2024-02-26T10:22:41;10.50;81.10
84739;DHT22;74969;44.836;-0.586;2024-02-26T10:25:08;10.50;80.40
84739;DHT22;74969;44.836;-0.586;2024-02-26T10:27:34;10.60;81.20
84739;DHT22;74969;44.836;-0.586;2024-02-26T10:30:23;10.70;81.30
84739;DHT22;74969;44.836;-0.586;2024-02-26T10:32:51;11.00;82.30
84739;DHT22;74969;44.836;-0.586;2024-02-26T10:35:18;11.40;81.40
84739;DHT22;74969;44.836;-0.586;2024-02-26T10:37:46;11.70;81.20
84739;DHT22;74969;44.836;-0.586;2024-02-26T10:40:13;11.90;79.30
84739;DHT22;74969;44.836;-0.586;2024-02-26T10:42:40;12.10;80.50
84739;DHT22;74969;44.836;-0.586;2024-02-26T10:45:09;12.20;78.10
84739;DHT22;74969;44.836;-0.586;2024-02-26T10:47:36;12.30;78.90
84739;DHT22;74969;44.836;-0.586;2024-02-26T10:50:03;12.30;78.00
84739;DHT22;74969;44.836;-0.586;2024-02-26T10:52:32;12.10;77.70
84739;DHT22;74969;44.836;-0.586;2024-02-26T10:55:04;12.00;78.70
84739;DHT22;74969;44.836;-0.586;2024-02-26T10:57:39;12.10;78.90
84739;DHT22;74969;44.836;-0.586;2024-02-26T11:00:06;12.20;78.50
84739;DHT22;74969;44.836;-0.586;2024-02-26T11:02:36;12.30;78.40
84739;DHT22;74969;44.836;-0.586;2024-02-26T11:05:06;12.50;77.00
84739;DHT22;74969;44.836;-0.586;2024-02-26T11:07:32;12.50;77.90
84739;DHT22;74969;44.836;-0.586;2024-02-26T11:10:03;12.40;77.70
84739;DHT22;74969;44.836;-0.586;2024-02-26T11:12:29;12.40;78.30
84739;DHT22;74969;44.836;-0.586;2024-02-26T11:14:56;12.30;77.50
84739;DHT22;74969;44.836;-0.586;2024-02-26T11:17:26;12.20;77.50
84739;DHT22;74969;44.836;-0.586;2024-02-26T11:19:55;12.10;77.90
84739;DHT22;74969;44.836;-0.586;2024-02-26T11:22:21;12.20;79.20
84739;DHT22;74969;44.836;-0.586;2024-02-26T11:24:52;12.40;79.00
84739;DHT22;74969;44.836;-0.586;2024-02-26T11:27:23;12.70;78.90
84739;DHT22;74969;44.836;-0.586;2024-02-26T11:29:52;12.70;77.80
84739;DHT22;74969;44.836;-0.586;2024-02-26T11:32:18;12.70;77.00
84739;DHT22;74969;44.836;-0.586;2024-02-26T11:34:44;12.60;76.40
84739;DHT22;74969;44.836;-0.586;2024-02-26T11:37:19;12.60;76.80
84739;DHT22;74969;44.836;-0.586;2024-02-26T11:39:46;12.60;76.70
84739;DHT22;74969;44.836;-0.586;2024-02-26T11:42:14;12.70;77.20
84739;DHT22;74969;44.836;-0.586;2024-02-26T11:44:40;12.90;76.50
84739;DHT22;74969;44.836;-0.586;2024-02-26T11:47:21;13.00;76.00
84739;DHT22;74969;44.836;-0.586;2024-02-26T11:49:48;13.00;75.80
84739;DHT22;74969;44.836;-0.586;2024-02-26T11:52:16;13.00;74.00
84739;DHT22;74969;44.836;-0.586;2024-02-26T11:54:50;13.10;75.70
84739;DHT22;74969;44.836;-0.586;2024-02-26T11:57:40;13.20;74.90
84739;DHT22;74969;44.836;-0.586;2024-02-26T12:02:45;13.40;71.80
84739;DHT22;74969;44.836;-0.586;2024-02-26T12:05:16;13.20;71.60
84739;DHT22;74969;44.836;-0.586;2024-02-26T12:07:48;13.10;73.30
84739;DHT22;74969;44.836;-0.586;2024-02-26T12:10:33;13.20;72.40
84739;DHT22;74969;44.836;-0.586;2024-02-26T12:13:14;13.10;71.40
84739;DHT22;74969;44.836;-0.586;2024-02-26T12:15:42;13.00;71.40
84739;DHT22;74969;44.836;-0.586;2024-02-26T12:18:10;12.70;72.70
84739;DHT22;74969;44.836;-0.586;2024-02-26T12:20:37;12.50;74.50
84739;DHT22;74969;44.836;-0.586;2024-02-26T12:23:03;12.20;75.70
84739;DHT22;74969;44.836;-0.586;2024-02-26T12:25:32;11.90;76.80
84739;DHT22;74969;44.836;-0.586;2024-02-26T12:27:59;11.70;77.40
84739;DHT22;74969;44.836;-0.586;2024-02-26T12:30:25;11.50;78.60
84739;DHT22;74969;44.836;-0.586;2024-02-26T12:32:53;11.60;79.60
84739;DHT22;74969;44.836;-0.586;2024-02-26T12:35:24;11.80;78.50
84739;DHT22;74969;44.836;-0.586;2024-02-26T12:37:50;11.80;78.60
84739;DHT22;74969;44.836;-0.586;2024-02-26T12:40:17;11.90;77.40
84739;DHT22;74969;44.836;-0.586;2024-02-26T12:42:43;11.90;78.60
84739;DHT22;74969;44.836;-0.586;2024-02-26T12:45:13;11.90;78.30
84739;DHT22;74969;44.836;-0.586;2024-02-26T12:47:41;12.00;77.40
84739;DHT22;74969;44.836;-0.586;2024-02-26T12:50:08;12.00;76.90
84739;DHT22;74969;44.836;-0.586;2024-02-26T12:52:35;12.00;77.80
84739;DHT22;74969;44.836;-0.586;2024-02-26T12:55:02;12.10;77.40
84739;DHT22;74969;44.836;-0.586;2024-02-26T12:57:32;12.20;76.90
84739;DHT22;74969;44.836;-0.586;2024-02-26T12:59:59;12.30;76.40
84739;DHT22;74969;44.836;-0.586;2024-02-26T13:02:26;12.20;75.40
84739;DHT22;74969;44.836;-0.586;2024-02-26T13:04:54;12.10;75.50
84739;DHT22;74969;44.836;-0.586;2024-02-26T13:07:20;12.20;76.30
84739;DHT22;74969;44.836;-0.586;2024-02-26T13:09:46;12.20;75.00
84739;DHT22;74969;44.836;-0.586;2024-02-26T13:12:12;12.30;75.50
84739;DHT22;74969;44.836;-0.586;2024-02-26T13:14:39;12.40;75.20
84739;DHT22;74969;44.836;-0.586;2024-02-26T13:17:05;12.50;74.70
84739;DHT22;74969;44.836;-0.586;2024-02-26T13:19:31;12.50;73.90
84739;DHT22;74969;44.836;-0.586;2024-02-26T13:22:06;12.60;72.20
84739;DHT22;74969;44.836;-0.586;2024-02-26T13:24:35;12.50;73.10
84739;DHT22;74969;44.836;-0.586;2024-02-26T13:27:00;12.40;73.60
84739;DHT22;74969;44.836;-0.586;2024-02-26T13:29:28;12.30;73.40
84739;DHT22;74969;44.836;-0.586;2024-02-26T13:31:57;12.20;73.50
84739;DHT22;74969;44.836;-0.586;2024-02-26T13:34:29;12.10;73.70
84739;DHT22;74969;44.836;-0.586;2024-02-26T13:36:56;11.90;74.10
84739;DHT22;74969;44.836;-0.586;2024-02-26T13:39:26;11.90;74.40
84739;DHT22;74969;44.836;-0.586;2024-02-26T13:41:53;11.80;74.30
84739;DHT22;74969;44.836;-0.586;2024-02-26T13:44:21;11.80;73.90
84739;DHT22;74969;44.836;-0.586;2024-02-26T13:46:47;11.80;74.80
84739;DHT22;74969;44.836;-0.586;2024-02-26T13:49:14;11.80;74.50
84739;DHT22;74969;44.836;-0.586;2024-02-26T13:51:40;11.70;74.70
84739;DHT22;74969;44.836;-0.586;2024-02-26T13:54:07;11.70;74.70
84739;DHT22;74969;44.836;-0.586;2024-02-26T13:56:48;12.40;74.40
84739;DHT22;74969;44.836;-0.586;2024-02-26T13:59:14;11.90;73.80
84739;DHT22;74969;44.836;-0.586;2024-02-26T14:01:39;11.80;73.90
84739;DHT22;74969;44.836;-0.586;2024-02-26T14:04:05;11.70;73.70
84739;DHT22;74969;44.836;-0.586;2024-02-26T14:08:40;12.30;73.60
84739;DHT22;74969;44.836;-0.586;2024-02-26T14:11:06;11.90;73.90
84739;DHT22;74969;44.836;-0.586;2024-02-26T14:13:32;11.90;72.90
84739;DHT22;74969;44.836;-0.586;2024-02-26T14:15:57;11.90;73.40
84739;DHT22;74969;44.836;-0.586;2024-02-26T14:18:23;11.90;73.40
84739;DHT22;74969;44.836;-0.586;2024-02-26T14:20:49;11.90;74.00
84739;DHT22;74969;44.836;-0.586;2024-02-26T14:23:15;12.00;72.80
84739;DHT22;74969;44.836;-0.586;2024-02-26T14:25:42;12.00;73.10
84739;DHT22;74969;44.836;-0.586;2024-02-26T14:28:09;12.00;71.90
84739;DHT22;74969;44.836;-0.586;2024-02-26T14:30:35;11.70;72.70
84739;DHT22;74969;44.836;-0.586;2024-02-26T14:33:01;11.40;74.70
84739;DHT22;74969;44.836;-0.586;2024-02-26T14:35:26;11.30;74.90
84739;DHT22;74969;44.836;-0.586;2024-02-26T14:37:52;11.20;75.60
84739;DHT22;74969;44.836;-0.586;2024-02-26T14:40:19;11.10;76.10
84739;DHT22;74969;44.836;-0.586;2024-02-26T14:42:45;11.10;76.20
84739;DHT22;74969;44.836;-0.586;2024-02-26T14:45:11;11.00;76.90
84739;DHT22;74969;44.836;-0.586;2024-02-26T14:47:37;11.10;77.50
84739;DHT22;74969;44.836;-0.586;2024-02-26T14:50:03;11.10;77.70
84739;DHT22;74969;44.836;-0.586;2024-02-26T14:52:29;11.10;77.40
84739;DHT22;74969;44.836;-0.586;2024-02-26T14:54:55;11.10;77.80
84739;DHT22;74969;44.836;-0.586;2024-02-26T14:57:20;11.20;77.60
84739;DHT22;74969;44.836;-0.586;2024-02-26T14:59:46;11.20;77.80
84739;DHT22;74969;44.836;-0.586;2024-02-26T15:02:13;11.30;77.50
84739;DHT22;74969;44.836;-0.586;2024-02-26T15:04:39;11.30;77.90
84739;DHT22;74969;44.836;-0.586;2024-02-26T15:07:05;11.30;77.20
84739;DHT22;74969;44.836;-0.586;2024-02-26T15:09:30;11.30;77.00
84739;DHT22;74969;44.836;-0.586;2024-02-26T15:11:56;11.30;77.40
84739;DHT22;74969;44.836;-0.586;2024-02-26T15:14:23;11.40;77.40
84739;DHT22;74969;44.836;-0.586;2024-02-26T15:16:49;11.50;77.50
84739;DHT22;74969;44.836;-0.586;2024-02-26T15:19:14;11.50;77.80
84739;DHT22;74969;44.836;-0.586;2024-02-26T15:21:44;11.50;77.30
84739;DHT22;74969;44.836;-0.586;2024-02-26T15:24:10;11.60;77.60